Auburn, New Hampshire
Current Conditions -  °F | °C
As of 11:34 AM on Monday 24 Nov 2014 (Local Time) from KMHT Reporting Station
Haze Haze  
Wind Chill: 62°   Ceiling: 1000
Heat Index: 62°   Visibility: 5mi
Dew Point: 59°   Wind: 13mph
Humidity: 90%   Direction: 180°S
Pressure: 29.62"   Gusts: NA
Location:  43°N, 71.35°W
Report Text: KMHT 241634Z 18011KT 5SM BR OVC010 17/15 A2962 RMK AO2 RAE1557 CIG 006V013 P0000 T01670150
Loading
Personal Weather Stations






























Interactive Weather Map New forecast layout! Learn more

10-Day Weather Forecast

Advertisements
Track Severe Weather on mobile